Terminal Aerodrome Forecast
Issued by NWS

Home | Current Version | Previous Version | Text Only | Print | Product List | Glossary On
Versions: 1 2 3 4 5 6 7 8 9 10 11 12 13 14 15 16 17 18 19 20 21 22 23 24
000
FTUS45 KBOI 041740
TAFTWF
TAF
KTWF 041740Z 0418/0518 36009KT P6SM SCT100 BKN150
     FM050200 22011KT P6SM SCT090 BKN120
      TEMPO 0505/0509 28020G35KT BKN070
     FM051700 26014G20KT P6SM SCT100 BKN150=

USA.gov is the U.S. government's official web portal to all federal, state and local government web resources and services.